Flight Track Log - Related Links

Times and Time Zones

All times are in EDT time to prevent confusion due to time zone crossing. See the N118RT flight status page for this flight to view local times or setup timezone preferences in your user account.

Time Position Orientation Groundspeed Altitude Reporting Facility
EDT Latitude Longitude Course Direction KTS MPH feet Rate Location/Type
Thu 12:25:28 PM 31.7956 -106.4019 206° Southwest 200 230 4,500  Level Albuquerque Center
Thu 12:25:47 PM 31.7803 -106.4108 206° Southwest 210 242 5,100 2,047 Climbing Albuquerque Center
Thu 12:26:53 PM 31.7292 -106.3536 136° Southeast 235 270 7,400 2,220 Climbing Albuquerque Center
Thu 12:27:54 PM 31.6886 -106.2936 128° Southeast 241 277 9,800 2,250 Climbing Albuquerque Center
Thu 12:29:01 PM 31.6464 -106.2378 132° Southeast 235 270 12,200 2,140 Climbing Albuquerque Center
Thu 12:30:03 PM 31.6014 -106.1794 132° Southeast 240 276 14,400 2,032 Climbing Albuquerque Center
Thu 12:31:05 PM 31.5533 -106.1181 133° Southeast 255 293 16,400 2,177 Climbing Albuquerque Center
Thu 12:32:07 PM 31.4914 -106.0375 132° Southeast 278 320 18,900 2,274 Climbing Albuquerque Center
Thu 12:33:09 PM 31.4389 -105.9692 132° Southeast 283 326 21,100 2,032 Climbing Albuquerque Center
Thu 12:34:11 PM 31.3850 -105.8997 132° Southeast 287 330 23,100 1,920 Climbing Albuquerque Center
Thu 12:35:14 PM 31.3322 -105.8319 132° Southeast 283 326 25,100 1,824 Climbing Albuquerque Center
Thu 12:36:16 PM 31.2758 -105.7603 133° Southeast 298 343 26,900 1,394 Climbing Albuquerque Center
Thu 12:42:33 PM 30.8400 -105.3750 133° Southeast 311 358 35,300 1,281 Climbing FlightAware ADS-B
Thu 12:43:13 PM 30.7830 -105.3540 162° South 315 362 35,800 776 Climbing FlightAware ADS-B
Thu 12:43:58 PM 30.7210 -105.3300 162° South 319 367 36,400 750 Climbing FlightAware ADS-B
Thu 12:44:33 PM 30.6700 -105.3110 162° South 323 372 36,800 565 Climbing FlightAware ADS-B
Thu 12:45:23 PM 30.6010 -105.2880 164° South 317 365 37,200 600 Climbing FlightAware ADS-B
Thu 12:46:03 PM 30.5390 -105.2890 181° South 315 362 37,700 750 Climbing FlightAware ADS-B
Thu 12:46:43 PM 30.4820 -105.2890 180° South 313 360 38,200 635 Climbing FlightAware ADS-B
Thu 12:47:28 PM 30.4200 -105.2900 181° South 313 360 38,600 424 Climbing FlightAware ADS-B
Thu 12:48:08 PM 30.3590 -105.2920 182° South 317 365 38,800 300 Climbing FlightAware ADS-B
Thu 12:48:48 PM 30.3030 -105.2920 180° South 322 371 39,000 150 Climbing FlightAware ADS-B
Thu 12:49:28 PM 30.2440 -105.2930 181° South 324 373 39,000  Level FlightAware ADS-B
Thu 12:49:48 PM 30.2110 -105.2710 150° Southeast 349 402 39,000  Level FlightAware ADS-B
Thu 12:50:28 PM 30.1480 -105.2450 160° South 356 410 39,000  Level FlightAware ADS-B
Thu 12:51:13 PM 30.0770 -105.2150 160° South 361 415 39,000  Level FlightAware ADS-B
Thu 12:51:48 PM 30.0240 -105.1930 160° South 365 420 39,000  Level FlightAware ADS-B
Thu 12:52:28 PM 29.9670 -105.1680 159° South 365 420 39,000  Level FlightAware ADS-B
Thu 12:53:08 PM 29.9130 -105.1440 159° South 365 420 39,000  Level FlightAware ADS-B
Thu 12:53:58 PM 29.8460 -105.1150 159° South 365 420 39,000  Level FlightAware ADS-B
Thu 12:54:38 PM 29.7510 -105.0790 162° South 363 418 39,000  Level FlightAware ADS-B
Thu 12:55:23 PM 29.6810 -105.0500 160° South 361 415 39,000  Level FlightAware ADS-B
Thu 12:56:03 PM 29.6190 -105.0240 160° South 360 414 39,000  Level FlightAware ADS-B
Thu 12:56:48 PM 29.5510 -104.9960 160° South 358 412 39,000  Level FlightAware ADS-B
Thu 12:57:28 PM 29.4930 -104.9720 160° South 358 412 39,000  Level FlightAware ADS-B
Thu 12:58:08 PM 29.4400 -104.9500 160° South 358 412 39,000  Level FlightAware ADS-B
Thu 12:58:48 PM 29.3880 -104.9280 160° South 358 412 39,000  Level FlightAware ADS-B
Thu 12:59:38 PM 29.3210 -104.9000 160° South 358 412 39,000  Level FlightAware ADS-B
Thu 01:00:18 PM 29.2690 -104.8780 160° South 358 412 39,000  Level FlightAware ADS-B
Thu 01:00:58 PM 29.1590 -104.8340 161° South 353 406 39,000  Level FlightAware ADS-B
Thu 01:01:43 PM 29.0910 -104.8060 160° South 353 406 39,000  Level FlightAware ADS-B
Thu 01:02:23 PM 29.0300 -104.7810 160° South 353 406 39,000  Level FlightAware ADS-B
Thu 01:03:08 PM 28.9590 -104.7520 160° South 353 406 39,000  Level FlightAware ADS-B
Thu 01:03:43 PM 28.9070 -104.7300 160° South 352 405 39,000  Level FlightAware ADS-B
Thu 01:04:28 PM 28.8360 -104.7010 160° South 353 406 39,000  Level FlightAware ADS-B
Thu 01:05:13 PM 28.7670 -104.6730 160° South 353 406 39,000  Level FlightAware ADS-B
Thu 01:05:53 PM 28.7090 -104.6490 160° South 351 404 39,000  Level FlightAware ADS-B
Thu 01:06:33 PM 28.6450 -104.6240 161° South 353 406 39,000  Level FlightAware ADS-B
Thu 01:07:18 PM 28.5780 -104.5960 160° South 353 406 39,000  Level FlightAware ADS-B
Thu 01:07:58 PM 28.5130 -104.5700 161° South 354 407 39,000  Level FlightAware ADS-B
Thu 01:08:43 PM 28.4450 -104.5420 160° South 354 407 39,000  Level FlightAware ADS-B
Thu 01:09:23 PM 28.3840 -104.5170 160° South 356 410 39,000  Level FlightAware ADS-B
Thu 01:10:03 PM 28.3200 -104.4920 161° South 356 410 39,000  Level FlightAware ADS-B
Thu 01:10:48 PM 28.2510 -104.4640 160° South 357 411 39,000  Level FlightAware ADS-B
Thu 01:11:28 PM 28.1870 -104.4380 160° South 358 412 39,000  Level FlightAware ADS-B
Thu 01:12:03 PM 28.1310 -104.4150 160° South 358 412 39,000  Level FlightAware ADS-B
Thu 01:13:08 PM 28.0320 -104.3750 160° South 359 413 39,000  Level FlightAware ADS-B
Thu 01:13:43 PM 27.9820 -104.3550 161° South 359 413 39,000  Level FlightAware ADS-B
Thu 01:14:33 PM 27.8960 -104.3210 161° South 359 413 39,000  Level FlightAware ADS-B
Thu 01:15:08 PM 27.8430 -104.2990 160° South 359 413 39,000  Level FlightAware ADS-B
Thu 01:15:53 PM 27.7730 -104.2710 161° South 360 414 39,000  Level FlightAware ADS-B
Thu 01:16:38 PM 27.7020 -104.2430 161° South 362 417 39,000  Level FlightAware ADS-B
Thu 01:17:18 PM 27.6400 -104.2180 160° South 362 417 39,000  Level FlightAware ADS-B
Thu 01:18:03 PM 27.5690 -104.1900 161° South 363 418 39,000  Level FlightAware ADS-B
Thu 01:18:43 PM 27.5040 -104.1640 160° South 363 418 39,000  Level FlightAware ADS-B
Thu 01:19:28 PM 27.4360 -104.1370 161° South 363 418 39,000  Level FlightAware ADS-B
Thu 01:19:58 PM 27.3870 -104.1170 160° South 363 418 39,000  Level FlightAware ADS-B
Thu 01:20:43 PM 27.3150 -104.0890 161° South 362 417 39,000  Level FlightAware ADS-B
Thu 01:21:28 PM 27.2510 -104.0630 160° South 362 417 39,000  Level FlightAware ADS-B
Thu 01:22:08 PM 27.1980 -104.0410 160° South 362 417 39,000  Level FlightAware ADS-B
Thu 01:22:58 PM 27.1310 -104.0140 160° South 362 417 39,000  Level FlightAware ADS-B
Thu 01:23:38 PM 27.0770 -103.9920 160° South 362 417 39,000  Level FlightAware ADS-B
Thu 01:24:18 PM 27.0240 -103.9700 160° South 362 417 39,000  Level FlightAware ADS-B
Thu 01:24:58 PM 26.9700 -103.9480 160° South 362 417 39,000  Level FlightAware ADS-B
Thu 01:25:38 PM 26.9170 -103.9260 160° South 362 417 39,000  Level FlightAware ADS-B
Thu 01:26:28 PM 26.8500 -103.8990 160° South 362 417 39,000  Level FlightAware ADS-B
Thu 01:27:08 PM 26.7960 -103.8770 160° South 362 417 39,000  Level FlightAware ADS-B
Thu 01:27:48 PM 26.7430 -103.8550 160° South 362 417 39,000  Level FlightAware ADS-B
Thu 01:28:28 PM 26.6890 -103.8330 160° South 362 417 39,000  Level FlightAware ADS-B
Thu 01:29:08 PM 26.6360 -103.8120 160° South 362 417 39,000  Level FlightAware ADS-B
Thu 01:29:48 PM 26.5820 -103.7900 160° South 362 417 39,000  Level FlightAware ADS-B
Thu 01:30:38 PM 26.5150 -103.7630 160° South 362 417 39,000  Level FlightAware ADS-B
Thu 01:33:00 PM 26.3255 -103.6920 161° South  Level Estimated
Thu 01:34:00 PM 26.2454 -103.6620 161° South  Level Estimated
Thu 01:35:00 PM 26.1653 -103.6321 161° South  Level Estimated
Thu 01:36:00 PM 26.0852 -103.6023 161° South  Level Estimated
Thu 01:37:00 PM 26.0051 -103.5724 162° South  Level Estimated
Thu 01:38:00 PM 25.9250 -103.5427 162° South  Level Estimated
Thu 01:39:00 PM 25.8449 -103.5129 162° South  Level Estimated
Thu 01:40:00 PM 25.7648 -103.4832 162° South  Level Estimated
Thu 01:41:00 PM 25.6846 -103.4536 162° South  Level Estimated
Thu 01:42:00 PM 25.6045 -103.4240 162° South  Level Estimated
Thu 01:43:00 PM 25.5683 -103.4106 162° South  Level Estimated
Thu 01:44:00 PM 25.5683 -103.4106 234° Southwest  Level Estimated
Thu 01:45:00 PM 25.5683 -103.4106 234° Southwest  Level Estimated
Thu 01:46:00 PM 25.5683 -103.4106 234° Southwest  Level Estimated
Thu 01:47:00 PM 25.5683 -103.4106 234° Southwest  Level Estimated
Thu 01:48:00 PM 25.5683 -103.4106 234° Southwest  Level Estimated
Thu 01:49:00 PM 25.5683 -103.4106 234° Southwest  Level Estimated
Thu 01:50:00 PM 25.5683 -103.4106 234° Southwest  Level Estimated
Thu 01:51:00 PM 25.5683 -103.4106 234° Southwest  Level Estimated
Thu 01:52:00 PM 25.5683 -103.4106 234° Southwest  Level Estimated
Thu 01:53:00 PM 25.5683 -103.4106 234° Southwest  Level Estimated
Thu 01:54:00 PM 25.5683 -103.4106 234° Southwest  Level Estimated
Thu 01:55:00 PM 25.5683 -103.4106 234° Southwest  Level Estimated
Thu 01:56:00 PM 25.5683 -103.4106 234° Southwest  Level Estimated
Thu 01:57:00 PM 25.5683 -103.4106 234° Southwest  Level Estimated
Thu 01:58:00 PM 25.5683 -103.4106 234° Southwest  Level Estimated
Thu 01:59:00 PM 25.5683 -103.4106 234° Southwest  Level Estimated
Thu 02:00:00 PM 25.5683 -103.4106 234° Southwest  Level Estimated
Thu 02:01:00 PM 25.5683 -103.4106 234° Southwest  Level Estimated
Thu 02:02:00 PM 25.5683 -103.4106 234° Southwest  Level Estimated
Thu 02:03:00 PM 25.5683 -103.4106 234° Southwest  Level Estimated
Thu 02:04:00 PM 25.5683 -103.4106 234° Southwest  Level Estimated
Thu 02:05:00 PM 25.5683 -103.4106 234° Southwest  Level Estimated

Login

Don't have an account? Register now (free) for customized features, flight alerts, and more!